^^
Datos históricos de la estación: Murcia-Puente Tocinos
Diario Informe para Junio 10, 2019 Unidades:  Ambas    Inglés   Métrico
Diario Semanal Mensual Anual Configurable
  Máximo: Mínimo: Media:
Temperatura: 87.3 °F /  30.7 °C 68.4 °F /  20.2 °C 76.6 °F /  24.8 °C
Punto de rocio: 63.5 °F /  17.5 °C 40.8 °F /  4.9 °C 52.5 °F /  11.4 °C
Humedad: 84% 21% 47%
Velocidad viento: 14.5mph /  23.3km/h - 7.1mph /  11.5km/h
Racha viento: 25.3mph /  40.7km/h - -
Viento- - South
Presión: 29.9 in /  1012.5 hPa 29.8 in /  1008.9 hPa -
Precipitación: 0 in /  0.0 mm    
Historical Graphs
 
 
Tabla de datos para Junio 10, 2019
Hora Temperatura Punto de rocio Presión Viento Velocidad viento Racha viento Humedad Intensidad lluvia(por hora) Nubes
00:04 72.7 °F /  22.6 °C 60.3 °F /  15.7 °C 29.9in /  1012.0hPa SSW 7.4mph /  11.9km/h 8.1mph /  13.0km/h 65% 0in /  0.0mm CLR
00:09 72.3 °F /  22.4 °C 60.3 °F /  15.7 °C 29.9in /  1012.0hPa SSW 5.9mph /  9.5km/h 9.2mph /  14.8km/h 66% 0in /  0.0mm CLR
00:14 72 °F /  22.2 °C 60.4 °F /  15.8 °C 29.9in /  1012.0hPa SSE 5.9mph /  9.5km/h 10.4mph /  16.7km/h 67% 0in /  0.0mm CLR
00:19 71.8 °F /  22.1 °C 60.6 °F /  15.9 °C 29.9in /  1011.9hPa WSW 6.2mph /  10.0km/h 7.4mph /  11.9km/h 68% 0in /  0.0mm CLR
00:24 71.8 °F /  22.1 °C 60.6 °F /  15.9 °C 29.9in /  1011.9hPa SSW 6.2mph /  10.0km/h 10.4mph /  16.7km/h 68% 0in /  0.0mm CLR
00:29 71.4 °F /  21.9 °C 60.3 °F /  15.7 °C 29.9in /  1011.9hPa SW 5.9mph /  9.5km/h 6.9mph /  11.1km/h 68% 0in /  0.0mm CLR
00:34 71.4 °F /  21.9 °C 60.3 °F /  15.7 °C 29.9in /  1011.8hPa SW 5.9mph /  9.5km/h 7.4mph /  11.9km/h 68% 0in /  0.0mm CLR
00:39 71.4 °F /  21.9 °C 60.6 °F /  15.9 °C 29.9in /  1011.8hPa SSW 4.7mph /  7.6km/h 8.1mph /  13.0km/h 69% 0in /  0.0mm CLR
00:44 71.2 °F /  21.8 °C 60.4 °F /  15.8 °C 29.9in /  1011.8hPa WSW 4.7mph /  7.6km/h 5.8mph /  9.3km/h 69% 0in /  0.0mm CLR
00:49 71.1 °F /  21.7 °C 60.8 °F /  16.0 °C 29.9in /  1011.9hPa SW 5.2mph /  8.4km/h 6.9mph /  11.1km/h 70% 0in /  0.0mm CLR
00:54 71.1 °F /  21.7 °C 60.8 °F /  16.0 °C 29.9in /  1011.9hPa WSW 5.2mph /  8.4km/h 5.8mph /  9.3km/h 70% 0in /  0.0mm CLR
00:59 71.1 °F /  21.7 °C 60.8 °F /  16.0 °C 29.9in /  1011.9hPa WSW 4mph /  6.4km/h 6.9mph /  11.1km/h 70% 0in /  0.0mm CLR
01:04 70.9 °F /  21.6 °C 60.6 °F /  15.9 °C 29.9in /  1011.8hPa SW 4mph /  6.4km/h 8.1mph /  13.0km/h 70% 0in /  0.0mm CLR
01:09 70.9 °F /  21.6 °C 60.6 °F /  15.9 °C 29.9in /  1011.8hPa SW 5.2mph /  8.4km/h 6.9mph /  11.1km/h 70% 0in /  0.0mm CLR
01:14 70.9 °F /  21.6 °C 60.6 °F /  15.9 °C 29.9in /  1011.8hPa SW 5.2mph /  8.4km/h 8.5mph /  13.7km/h 70% 0in /  0.0mm CLR
01:19 70.9 °F /  21.6 °C 60.6 °F /  15.9 °C 29.9in /  1011.6hPa SSW 4.3mph /  6.9km/h 5.8mph /  9.3km/h 70% 0in /  0.0mm CLR
01:24 70.7 °F /  21.5 °C 60.8 °F /  16.0 °C 29.9in /  1011.6hPa SW 4.3mph /  6.9km/h 6.9mph /  11.1km/h 71% 0in /  0.0mm CLR
01:29 70.7 °F /  21.5 °C 60.8 °F /  16.0 °C 29.9in /  1011.6hPa SSW 5.2mph /  8.4km/h 9.2mph /  14.8km/h 71% 0in /  0.0mm CLR
01:34 70.3 °F /  21.3 °C 61 °F /  16.1 °C 29.9in /  1011.6hPa SSW 5.2mph /  8.4km/h 11.5mph /  18.5km/h 72% 0in /  0.0mm CLR
01:39 70.3 °F /  21.3 °C 61.3 °F /  16.3 °C 29.9in /  1011.6hPa South 6.2mph /  10.0km/h 6.9mph /  11.1km/h 73% 0in /  0.0mm CLR
01:44 70.2 °F /  21.2 °C 61.2 °F /  16.2 °C 29.9in /  1011.6hPa SW 6.2mph /  10.0km/h 7.4mph /  11.9km/h 73% 0in /  0.0mm CLR
01:49 70.2 °F /  21.2 °C 61.2 °F /  16.2 °C 29.9in /  1011.6hPa South 4.7mph /  7.6km/h 9.2mph /  14.8km/h 73% 0in /  0.0mm CLR
01:54 70 °F /  21.1 °C 61.3 °F /  16.3 °C 29.9in /  1011.6hPa SW 4.7mph /  7.6km/h 11.5mph /  18.5km/h 74% 0in /  0.0mm CLR
01:59 69.6 °F /  20.9 °C 61.3 °F /  16.3 °C 29.9in /  1011.6hPa SSW 6.4mph /  10.3km/h 6.9mph /  11.1km/h 75% 0in /  0.0mm CLR
02:04 69.4 °F /  20.8 °C 61.2 °F /  16.2 °C 29.9in /  1011.5hPa SW 6.4mph /  10.3km/h 10.7mph /  17.2km/h 75% 0in /  0.0mm CLR
02:09 69.3 °F /  20.7 °C 61.3 °F /  16.3 °C 29.9in /  1011.5hPa South 6.4mph /  10.3km/h 10.4mph /  16.7km/h 76% 0in /  0.0mm CLR
02:14 69.3 °F /  20.7 °C 61.3 °F /  16.3 °C 29.9in /  1011.5hPa SW 6.4mph /  10.3km/h 9.2mph /  14.8km/h 76% 0in /  0.0mm CLR
02:19 69.3 °F /  20.7 °C 61.7 °F /  16.5 °C 29.9in /  1011.5hPa SW 6.2mph /  10.0km/h 8.1mph /  13.0km/h 77% 0in /  0.0mm CLR
02:24 69.3 °F /  20.7 °C 61.7 °F /  16.5 °C 29.9in /  1011.5hPa SSW 6.2mph /  10.0km/h 5.8mph /  9.3km/h 77% 0in /  0.0mm CLR
02:29 69.1 °F /  20.6 °C 61.5 °F /  16.4 °C 29.9in /  1011.5hPa SSW 4.7mph /  7.6km/h 10.4mph /  16.7km/h 77% 0in /  0.0mm CLR
02:34 69.1 °F /  20.6 °C 61.5 °F /  16.4 °C 29.9in /  1011.4hPa SSW 4.7mph /  7.6km/h 8.1mph /  13.0km/h 77% 0in /  0.0mm CLR
02:39 69.1 °F /  20.6 °C 61.5 °F /  16.4 °C 29.9in /  1011.4hPa SW 5.9mph /  9.5km/h 8.1mph /  13.0km/h 77% 0in /  0.0mm CLR
02:44 69.3 °F /  20.7 °C 61.7 °F /  16.5 °C 29.9in /  1011.4hPa SW 5.9mph /  9.5km/h 6.9mph /  11.1km/h 77% 0in /  0.0mm CLR
02:49 69.3 °F /  20.7 °C 61.3 °F /  16.3 °C 29.9in /  1011.2hPa SSW 5.4mph /  8.7km/h 6.9mph /  11.1km/h 76% 0in /  0.0mm CLR
02:54 69.4 °F /  20.8 °C 61.5 °F /  16.4 °C 29.9in /  1011.2hPa West 5.4mph /  8.7km/h 8.1mph /  13.0km/h 76% 0in /  0.0mm CLR
02:59 69.4 °F /  20.8 °C 61.2 °F /  16.2 °C 29.9in /  1011.2hPa SW 4.7mph /  7.6km/h 6.9mph /  11.1km/h 75% 0in /  0.0mm CLR
03:04 69.4 °F /  20.8 °C 61.5 °F /  16.4 °C 29.9in /  1011.2hPa SW 4.7mph /  7.6km/h 8.1mph /  13.0km/h 76% 0in /  0.0mm CLR
03:09 69.4 °F /  20.8 °C 61.5 °F /  16.4 °C 29.9in /  1011.2hPa SW 5.4mph /  8.7km/h 5.9mph /  9.5km/h 76% 0in /  0.0mm CLR
03:14 69.4 °F /  20.8 °C 61.5 °F /  16.4 °C 29.9in /  1011.2hPa SW 5.4mph /  8.7km/h 6.9mph /  11.1km/h 76% 0in /  0.0mm CLR
03:19 69.4 °F /  20.8 °C 61.2 °F /  16.2 °C 29.9in /  1011.2hPa SSW 4.3mph /  6.9km/h 6.9mph /  11.1km/h 75% 0in /  0.0mm CLR
03:24 69.4 °F /  20.8 °C 61.2 °F /  16.2 °C 29.9in /  1011.2hPa SSW 4.3mph /  6.9km/h 5.8mph /  9.3km/h 75% 0in /  0.0mm CLR
03:29 69.6 °F /  20.9 °C 61 °F /  16.1 °C 29.9in /  1011.2hPa SSW 4.7mph /  7.6km/h 5.8mph /  9.3km/h 74% 0in /  0.0mm CLR
03:34 69.6 °F /  20.9 °C 61 °F /  16.1 °C 29.9in /  1011.1hPa SSW 4.7mph /  7.6km/h 8.1mph /  13.0km/h 74% 0in /  0.0mm CLR
03:39 69.6 °F /  20.9 °C 61 °F /  16.1 °C 29.9in /  1011.1hPa South 4.3mph /  6.9km/h 5.8mph /  9.3km/h 74% 0in /  0.0mm CLR
03:44 69.6 °F /  20.9 °C 61 °F /  16.1 °C 29.9in /  1011.1hPa SSE 4.3mph /  6.9km/h 4.6mph /  7.4km/h 74% 0in /  0.0mm CLR
03:49 69.4 °F /  20.8 °C 60.8 °F /  16.0 °C 29.9in /  1011.0hPa SSW 3.6mph /  5.8km/h 4.6mph /  7.4km/h 74% 0in /  0.0mm CLR
03:54 69.4 °F /  20.8 °C 60.8 °F /  16.0 °C 29.9in /  1011.0hPa SSW 3.6mph /  5.8km/h 6.9mph /  11.1km/h 74% 0in /  0.0mm CLR
03:59 69.4 °F /  20.8 °C 60.8 °F /  16.0 °C 29.9in /  1011.0hPa SSW 4mph /  6.4km/h 5.8mph /  9.3km/h 74% 0in /  0.0mm CLR
04:04 69.4 °F /  20.8 °C 60.8 °F /  16.0 °C 29.9in /  1010.9hPa SSW 4mph /  6.4km/h 5.8mph /  9.3km/h 74% 0in /  0.0mm CLR
04:09 69.4 °F /  20.8 °C 60.4 °F /  15.8 °C 29.9in /  1010.9hPa SSW 4.3mph /  6.9km/h 5.8mph /  9.3km/h 73% 0in /  0.0mm CLR
04:14 69.6 °F /  20.9 °C 60.3 °F /  15.7 °C 29.9in /  1010.9hPa WSW 4.3mph /  6.9km/h 5.8mph /  9.3km/h 72% 0in /  0.0mm CLR
04:19 69.6 °F /  20.9 °C 59.7 °F /  15.4 °C 29.9in /  1010.9hPa WSW 4mph /  6.4km/h 4.3mph /  6.9km/h 71% 0in /  0.0mm CLR
04:24 69.6 °F /  20.9 °C 60.3 °F /  15.7 °C 29.9in /  1010.9hPa WSW 4mph /  6.4km/h 4.6mph /  7.4km/h 72% 0in /  0.0mm CLR
04:29 69.6 °F /  20.9 °C 60.3 °F /  15.7 °C 29.9in /  1010.9hPa WSW 3.6mph /  5.8km/h 6.9mph /  11.1km/h 72% 0in /  0.0mm CLR
04:34 69.4 °F /  20.8 °C 60.4 °F /  15.8 °C 29.9in /  1010.9hPa NW 3.6mph /  5.8km/h 5.9mph /  9.5km/h 73% 0in /  0.0mm CLR
04:39 69.3 °F /  20.7 °C 60.3 °F /  15.7 °C 29.9in /  1010.9hPa WSW 4mph /  6.4km/h 4.6mph /  7.4km/h 73% 0in /  0.0mm CLR
04:44 69.1 °F /  20.6 °C 60.1 °F /  15.6 °C 29.9in /  1010.9hPa WSW 4mph /  6.4km/h 5.9mph /  9.5km/h 73% 0in /  0.0mm CLR
04:49 69.1 °F /  20.6 °C 60.1 °F /  15.6 °C 29.9in /  1010.9hPa WNW 3.6mph /  5.8km/h 5.2mph /  8.4km/h 73% 0in /  0.0mm CLR
04:54 68.9 °F /  20.5 °C 57.9 °F /  14.4 °C 29.9in /  1010.9hPa West 3.6mph /  5.8km/h 2.3mph /  3.7km/h 68% 0in /  0.0mm CLR
04:59 69.6 °F /  20.9 °C 55.6 °F /  13.1 °C 29.9in /  1010.9hPa SW 2.9mph /  4.7km/h 10.4mph /  16.7km/h 61% 0in /  0.0mm CLR
05:04 71.4 °F /  21.9 °C 52.9 °F /  11.6 °C 29.9in /  1010.9hPa WNW 2.9mph /  4.7km/h 9.2mph /  14.8km/h 52% 0in /  0.0mm CLR
05:09 72.3 °F /  22.4 °C 52.5 °F /  11.4 °C 29.9in /  1010.9hPa SW 5.9mph /  9.5km/h 9.2mph /  14.8km/h 50% 0in /  0.0mm CLR
05:14 72.5 °F /  22.5 °C 52.9 °F /  11.6 °C 29.9in /  1010.9hPa South 5.9mph /  9.5km/h 6.9mph /  11.1km/h 50% 0in /  0.0mm CLR
05:19 72.9 °F /  22.7 °C 54.1 °F /  12.3 °C 29.9in /  1010.9hPa South 4.7mph /  7.6km/h 8.1mph /  13.0km/h 52% 0in /  0.0mm CLR
05:24 72.3 °F /  22.4 °C 55.2 °F /  12.9 °C 29.9in /  1010.9hPa South 4.7mph /  7.6km/h 10.4mph /  16.7km/h 55% 0in /  0.0mm CLR
05:29 71.4 °F /  21.9 °C 55.4 °F /  13.0 °C 29.9in /  1010.9hPa SSE 5.9mph /  9.5km/h 5.8mph /  9.3km/h 57% 0in /  0.0mm CLR
05:34 71.2 °F /  21.8 °C 54.7 °F /  12.6 °C 29.9in /  1010.9hPa SSW 5.9mph /  9.5km/h 8.1mph /  13.0km/h 56% 0in /  0.0mm CLR
05:39 71.1 °F /  21.7 °C 53.1 °F /  11.7 °C 29.9in /  1010.9hPa South 3.6mph /  5.8km/h 6.2mph /  10.0km/h 53% 0in /  0.0mm CLR
05:44 71.1 °F /  21.7 °C 54.1 °F /  12.3 °C 29.9in /  1010.9hPa South 3.6mph /  5.8km/h 7.4mph /  11.9km/h 55% 0in /  0.0mm CLR
05:49 70.9 °F /  21.6 °C 53.4 °F /  11.9 °C 29.9in /  1010.9hPa SSW 5.2mph /  8.4km/h 8.1mph /  13.0km/h 54% 0in /  0.0mm CLR
05:54 70.9 °F /  21.6 °C 53.4 °F /  11.9 °C 29.9in /  1010.9hPa South 5.2mph /  8.4km/h 5.9mph /  9.5km/h 54% 0in /  0.0mm CLR
05:59 70.9 °F /  21.6 °C 52.3 °F /  11.3 °C 29.9in /  1010.9hPa South 4.7mph /  7.6km/h 6.9mph /  11.1km/h 52% 0in /  0.0mm CLR
06:04 70.9 °F /  21.6 °C 51.8 °F /  11.0 °C 29.9in /  1011.0hPa South 4.7mph /  7.6km/h 6.2mph /  10.0km/h 51% 0in /  0.0mm CLR
06:09 71.1 °F /  21.7 °C 51.4 °F /  10.8 °C 29.9in /  1011.0hPa South 4.7mph /  7.6km/h 6.9mph /  11.1km/h 50% 0in /  0.0mm CLR
06:14 71.1 °F /  21.7 °C 49.8 °F /  9.9 °C 29.9in /  1011.0hPa SSW 4.7mph /  7.6km/h 8.1mph /  13.0km/h 47% 0in /  0.0mm CLR
06:19 71.2 °F /  21.8 °C 49.5 °F /  9.7 °C 29.9in /  1011.1hPa SSW 5.4mph /  8.7km/h 8.1mph /  13.0km/h 46% 0in /  0.0mm CLR
06:24 71.4 °F /  21.9 °C 48.9 °F /  9.4 °C 29.9in /  1011.1hPa SSW 5.4mph /  8.7km/h 8.1mph /  13.0km/h 45% 0in /  0.0mm CLR
06:29 71.6 °F /  22.0 °C 48.6 °F /  9.2 °C 29.9in /  1011.1hPa SSW 5.2mph /  8.4km/h 6.9mph /  11.1km/h 44% 0in /  0.0mm CLR
06:34 71.6 °F /  22.0 °C 47.8 °F /  8.8 °C 29.9in /  1011.2hPa South 5.2mph /  8.4km/h 6.9mph /  11.1km/h 43% 0in /  0.0mm CLR
06:39 71.8 °F /  22.1 °C 47.5 °F /  8.6 °C 29.9in /  1011.2hPa SW 5.2mph /  8.4km/h 8.1mph /  13.0km/h 42% 0in /  0.0mm CLR
06:44 71.8 °F /  22.1 °C 47.5 °F /  8.6 °C 29.9in /  1011.2hPa SSW 5.2mph /  8.4km/h 5.8mph /  9.3km/h 42% 0in /  0.0mm CLR
06:49 71.8 °F /  22.1 °C 46.8 °F /  8.2 °C 29.9in /  1011.3hPa SSW 4.7mph /  7.6km/h 9.2mph /  14.8km/h 41% 0in /  0.0mm CLR
06:54 72 °F /  22.2 °C 46.2 °F /  7.9 °C 29.9in /  1011.3hPa SW 4.7mph /  7.6km/h 6.4mph /  10.3km/h 40% 0in /  0.0mm CLR
06:59 72 °F /  22.2 °C 45.7 °F /  7.6 °C 29.9in /  1011.3hPa South 5.4mph /  8.7km/h 5.8mph /  9.3km/h 39% 0in /  0.0mm CLR
07:04 72 °F /  22.2 °C 45.7 °F /  7.6 °C 29.9in /  1011.4hPa South 5.4mph /  8.7km/h 5.8mph /  9.3km/h 39% 0in /  0.0mm CLR
07:09 72.1 °F /  22.3 °C 45.1 °F /  7.3 °C 29.9in /  1011.4hPa South 5.2mph /  8.4km/h 5.8mph /  9.3km/h 38% 0in /  0.0mm CLR
07:14 72.1 °F /  22.3 °C 45.1 °F /  7.3 °C 29.9in /  1011.4hPa SW 5.2mph /  8.4km/h 4mph /  6.4km/h 38% 0in /  0.0mm CLR
07:19 72.3 °F /  22.4 °C 44.6 °F /  7.0 °C 29.9in /  1011.4hPa SSW 3.6mph /  5.8km/h 8.1mph /  13.0km/h 37% 0in /  0.0mm CLR
07:24 72.5 °F /  22.5 °C 44.8 °F /  7.1 °C 29.9in /  1011.4hPa SSW 3.6mph /  5.8km/h 5.8mph /  9.3km/h 37% 0in /  0.0mm CLR
07:29 72.5 °F /  22.5 °C 44.8 °F /  7.1 °C 29.9in /  1011.4hPa SSW 4.7mph /  7.6km/h 5.9mph /  9.5km/h 37% 0in /  0.0mm CLR
07:34 72.5 °F /  22.5 °C 44.8 °F /  7.1 °C 29.9in /  1011.6hPa SSW 4.7mph /  7.6km/h 4.6mph /  7.4km/h 37% 0in /  0.0mm CLR
07:39 72.5 °F /  22.5 °C 44.8 °F /  7.1 °C 29.9in /  1011.6hPa South 4mph /  6.4km/h 5.8mph /  9.3km/h 37% 0in /  0.0mm CLR
07:44 72.5 °F /  22.5 °C 44.1 °F /  6.7 °C 29.9in /  1011.6hPa SW 4mph /  6.4km/h 8.1mph /  13.0km/h 36% 0in /  0.0mm CLR
07:49 72.5 °F /  22.5 °C 44.1 °F /  6.7 °C 29.9in /  1011.8hPa SW 4.3mph /  6.9km/h 5.8mph /  9.3km/h 36% 0in /  0.0mm CLR
07:54 72.5 °F /  22.5 °C 44.1 °F /  6.7 °C 29.9in /  1011.8hPa WSW 4.3mph /  6.9km/h 4.7mph /  7.6km/h 36% 0in /  0.0mm CLR
07:59 72.5 °F /  22.5 °C 44.1 °F /  6.7 °C 29.9in /  1011.8hPa SW 4.3mph /  6.9km/h 5.9mph /  9.5km/h 36% 0in /  0.0mm CLR
08:04 72.7 °F /  22.6 °C 44.2 °F /  6.8 °C 29.9in /  1011.6hPa SSW 4.3mph /  6.9km/h 8.1mph /  13.0km/h 36% 0in /  0.0mm CLR
08:09 72.7 °F /  22.6 °C 44.2 °F /  6.8 °C 29.9in /  1011.6hPa WSW 4.7mph /  7.6km/h 5.4mph /  8.7km/h 36% 0in /  0.0mm CLR
08:14 72.7 °F /  22.6 °C 43.3 °F /  6.3 °C 29.9in /  1011.6hPa SW 4.7mph /  7.6km/h 10.4mph /  16.7km/h 35% 0in /  0.0mm CLR
08:19 72.9 °F /  22.7 °C 43.5 °F /  6.4 °C 29.9in /  1011.9hPa SW 5.2mph /  8.4km/h 8.1mph /  13.0km/h 35% 0in /  0.0mm CLR
08:24 73 °F /  22.8 °C 43.9 °F /  6.6 °C 29.9in /  1011.9hPa SSW 5.2mph /  8.4km/h 8.1mph /  13.0km/h 35% 0in /  0.0mm CLR
08:29 73.2 °F /  22.9 °C 43.9 °F /  6.6 °C 29.9in /  1011.9hPa SW 5.4mph /  8.7km/h 8.1mph /  13.0km/h 35% 0in /  0.0mm CLR
08:34 73.4 °F /  23.0 °C 44.1 °F /  6.7 °C 29.9in /  1011.9hPa WSW 5.4mph /  8.7km/h 6.9mph /  11.1km/h 35% 0in /  0.0mm CLR
08:39 73.6 °F /  23.1 °C 44.2 °F /  6.8 °C 29.9in /  1011.9hPa SSW 5.2mph /  8.4km/h 7.4mph /  11.9km/h 35% 0in /  0.0mm CLR
08:44 73.9 °F /  23.3 °C 44.4 °F /  6.9 °C 29.9in /  1011.9hPa SW 5.2mph /  8.4km/h 8.1mph /  13.0km/h 35% 0in /  0.0mm CLR
08:49 74.1 °F /  23.4 °C 44.8 °F /  7.1 °C 29.9in /  1012.1hPa WSW 5.2mph /  8.4km/h 9.2mph /  14.8km/h 35% 0in /  0.0mm CLR
08:54 74.5 °F /  23.6 °C 45 °F /  7.2 °C 29.9in /  1012.1hPa WSW 5.2mph /  8.4km/h 6.9mph /  11.1km/h 35% 0in /  0.0mm CLR
08:59 75 °F /  23.9 °C 45.5 °F /  7.5 °C 29.9in /  1012.1hPa WSW 5.4mph /  8.7km/h 8.1mph /  13.0km/h 35% 0in /  0.0mm CLR
09:04 75.4 °F /  24.1 °C 45.1 °F /  7.3 °C 29.9in /  1012.2hPa West 5.4mph /  8.7km/h 8.1mph /  13.0km/h 34% 0in /  0.0mm CLR
09:09 75.6 °F /  24.2 °C 45.1 °F /  7.3 °C 29.9in /  1012.2hPa SW 5.4mph /  8.7km/h 9.2mph /  14.8km/h 34% 0in /  0.0mm CLR
09:14 75.9 °F /  24.4 °C 44.8 °F /  7.1 °C 29.9in /  1012.2hPa SW 5.4mph /  8.7km/h 11.5mph /  18.5km/h 33% 0in /  0.0mm CLR
09:19 76.3 °F /  24.6 °C 45.1 °F /  7.3 °C 29.9in /  1012.3hPa SW 6.9mph /  11.1km/h 12.7mph /  20.4km/h 33% 0in /  0.0mm CLR
09:24 76.5 °F /  24.7 °C 44.4 °F /  6.9 °C 29.9in /  1012.3hPa SW 6.9mph /  11.1km/h 11.8mph /  19.0km/h 32% 0in /  0.0mm CLR
09:29 76.6 °F /  24.8 °C 44.6 °F /  7.0 °C 29.9in /  1012.3hPa West 6.9mph /  11.1km/h 14mph /  22.5km/h 32% 0in /  0.0mm CLR
09:34 76.8 °F /  24.9 °C 43.9 °F /  6.6 °C 29.9in /  1012.4hPa WSW 6.9mph /  11.1km/h 11.8mph /  19.0km/h 31% 0in /  0.0mm CLR
09:39 77.2 °F /  25.1 °C 43.3 °F /  6.3 °C 29.9in /  1012.4hPa West 8.7mph /  14.0km/h 18.4mph /  29.6km/h 30% 0in /  0.0mm CLR
09:44 77.5 °F /  25.3 °C 43.5 °F /  6.4 °C 29.9in /  1012.4hPa WNW 8.7mph /  14.0km/h 12.7mph /  20.4km/h 30% 0in /  0.0mm CLR
09:49 77.4 °F /  25.2 °C 43.5 °F /  6.4 °C 29.9in /  1012.5hPa NW 9.2mph /  14.8km/h 12.7mph /  20.4km/h 30% 0in /  0.0mm CLR
09:54 77.5 °F /  25.3 °C 43.5 °F /  6.4 °C 29.9in /  1012.5hPa West 9.2mph /  14.8km/h 18.1mph /  29.1km/h 30% 0in /  0.0mm CLR
09:59 77.4 °F /  25.2 °C 43.5 °F /  6.4 °C 29.9in /  1012.5hPa WNW 9.7mph /  15.6km/h 12.7mph /  20.4km/h 30% 0in /  0.0mm CLR
10:04 77.5 °F /  25.3 °C 43.5 °F /  6.4 °C 29.9in /  1012.4hPa West 9.7mph /  15.6km/h 16.1mph /  25.9km/h 30% 0in /  0.0mm CLR
10:09 77.5 °F /  25.3 °C 42.8 °F /  6.0 °C 29.9in /  1012.4hPa NW 9.2mph /  14.8km/h 15mph /  24.1km/h 29% 0in /  0.0mm CLR
10:14 78.1 °F /  25.6 °C 44.1 °F /  6.7 °C 29.9in /  1012.4hPa NW 9.2mph /  14.8km/h 10.4mph /  16.7km/h 30% 0in /  0.0mm CLR
10:19 78.3 °F /  25.7 °C 43.3 °F /  6.3 °C 29.9in /  1012.3hPa WNW 8.7mph /  14.0km/h 11.5mph /  18.5km/h 29% 0in /  0.0mm CLR
10:24 78.4 °F /  25.8 °C 43.5 °F /  6.4 °C 29.9in /  1012.3hPa WSW 8.7mph /  14.0km/h 10.4mph /  16.7km/h 29% 0in /  0.0mm CLR
10:29 78.8 °F /  26.0 °C 43.9 °F /  6.6 °C 29.9in /  1012.3hPa NW 8.5mph /  13.7km/h 11.5mph /  18.5km/h 29% 0in /  0.0mm CLR
10:34 79 °F /  26.1 °C 44.1 °F /  6.7 °C 29.9in /  1012.3hPa WNW 8.5mph /  13.7km/h 13.8mph /  22.2km/h 29% 0in /  0.0mm CLR
10:39 79.2 °F /  26.2 °C 44.2 °F /  6.8 °C 29.9in /  1012.3hPa West 8.5mph /  13.7km/h 11.2mph /  18.0km/h 29% 0in /  0.0mm CLR
10:44 79 °F /  26.1 °C 43.2 °F /  6.2 °C 29.9in /  1012.3hPa NW 8.5mph /  13.7km/h 12.7mph /  20.4km/h 28% 0in /  0.0mm CLR
10:49 79.3 °F /  26.3 °C 44.2 °F /  6.8 °C 29.9in /  1012.2hPa SW 6.2mph /  10.0km/h 11.5mph /  18.5km/h 29% 0in /  0.0mm CLR
10:54 79.9 °F /  26.6 °C 43.9 °F /  6.6 °C 29.9in /  1012.2hPa West 6.2mph /  10.0km/h 10mph /  16.1km/h 28% 0in /  0.0mm CLR
10:59 79.9 °F /  26.6 °C 43.9 °F /  6.6 °C 29.9in /  1012.2hPa WSW 6.4mph /  10.3km/h 11.4mph /  18.3km/h 28% 0in /  0.0mm CLR
11:04 80.1 °F /  26.7 °C 43.2 °F /  6.2 °C 29.9in /  1012.1hPa West 6.4mph /  10.3km/h 11.5mph /  18.5km/h 27% 0in /  0.0mm CLR
11:09 80.4 °F /  26.9 °C 43.3 °F /  6.3 °C 29.9in /  1012.1hPa West 6.4mph /  10.3km/h 9.2mph /  14.8km/h 27% 0in /  0.0mm CLR
11:14 80.4 °F /  26.9 °C 43.3 °F /  6.3 °C 29.9in /  1012.1hPa West 6.4mph /  10.3km/h 12.7mph /  20.4km/h 27% 0in /  0.0mm CLR
11:19 80.6 °F /  27.0 °C 43.5 °F /  6.4 °C 29.9in /  1011.9hPa NW 6.9mph /  11.1km/h 11.4mph /  18.3km/h 27% 0in /  0.0mm CLR
11:24 80.6 °F /  27.0 °C 43.5 °F /  6.4 °C 29.9in /  1011.9hPa NW 6.9mph /  11.1km/h 9.2mph /  14.8km/h 27% 0in /  0.0mm CLR
11:29 80.8 °F /  27.1 °C 43.7 °F /  6.5 °C 29.9in /  1011.9hPa WNW 6.4mph /  10.3km/h 8.1mph /  13.0km/h 27% 0in /  0.0mm CLR
11:34 81.3 °F /  27.4 °C 43.2 °F /  6.2 °C 29.9in /  1011.8hPa West 6.4mph /  10.3km/h 7.6mph /  12.2km/h 26% 0in /  0.0mm CLR
11:39 81.7 °F /  27.6 °C 43.5 °F /  6.4 °C 29.9in /  1011.8hPa WNW 5.4mph /  8.7km/h 6.4mph /  10.3km/h 26% 0in /  0.0mm CLR
11:44 81.7 °F /  27.6 °C 43.5 °F /  6.4 °C 29.9in /  1011.8hPa West 5.4mph /  8.7km/h 8.1mph /  13.0km/h 26% 0in /  0.0mm CLR
11:49 81.7 °F /  27.6 °C 43.5 °F /  6.4 °C 29.9in /  1011.7hPa WNW 5.9mph /  9.5km/h 6.2mph /  10.0km/h 26% 0in /  0.0mm CLR
11:54 82 °F /  27.8 °C 43.9 °F /  6.6 °C 29.9in /  1011.7hPa WSW 5.9mph /  9.5km/h 4.7mph /  7.6km/h 26% 0in /  0.0mm CLR
11:59 82.4 °F /  28.0 °C 43 °F /  6.1 °C 29.9in /  1011.7hPa West 4mph /  6.4km/h 6.9mph /  11.1km/h 25% 0in /  0.0mm CLR
12:04 82.6 °F /  28.1 °C 43.2 °F /  6.2 °C 29.9in /  1011.6hPa West 4mph /  6.4km/h 8.1mph /  13.0km/h 25% 0in /  0.0mm CLR
12:09 82.9 °F /  28.3 °C 42.4 °F /  5.8 °C 29.9in /  1011.6hPa NW 5.4mph /  8.7km/h 6.9mph /  11.1km/h 24% 0in /  0.0mm CLR
12:14 82.9 °F /  28.3 °C 42.4 °F /  5.8 °C 29.9in /  1011.6hPa NW 5.4mph /  8.7km/h 12.3mph /  19.8km/h 24% 0in /  0.0mm CLR
12:19 83.5 °F /  28.6 °C 43 °F /  6.1 °C 29.9in /  1011.5hPa WNW 5.4mph /  8.7km/h 10.4mph /  16.7km/h 24% 0in /  0.0mm CLR
12:24 83.7 °F /  28.7 °C 43 °F /  6.1 °C 29.9in /  1011.5hPa North 5.4mph /  8.7km/h 12.7mph /  20.4km/h 24% 0in /  0.0mm CLR
12:29 83.7 °F /  28.7 °C 40.8 °F /  4.9 °C 29.9in /  1011.5hPa WNW 6.9mph /  11.1km/h 8.5mph /  13.7km/h 22% 0in /  0.0mm CLR
12:34 84 °F /  28.9 °C 42.3 °F /  5.7 °C 29.9in /  1011.4hPa WNW 6.9mph /  11.1km/h 11.4mph /  18.3km/h 23% 0in /  0.0mm CLR
12:39 84.2 °F /  29.0 °C 41.2 °F /  5.1 °C 29.9in /  1011.4hPa WNW 6.2mph /  10.0km/h 16.1mph /  25.9km/h 22% 0in /  0.0mm CLR
12:44 84 °F /  28.9 °C 41.2 °F /  5.1 °C 29.9in /  1011.4hPa WNW 6.2mph /  10.0km/h 13.8mph /  22.2km/h 22% 0in /  0.0mm CLR
12:49 83.8 °F /  28.8 °C 40.8 °F /  4.9 °C 29.9in /  1011.3hPa WNW 8.7mph /  14.0km/h 10.4mph /  16.7km/h 22% 0in /  0.0mm CLR
12:54 84 °F /  28.9 °C 42.3 °F /  5.7 °C 29.9in /  1011.3hPa WNW 8.7mph /  14.0km/h 8.1mph /  13.0km/h 23% 0in /  0.0mm CLR
12:59 84 °F /  28.9 °C 41.2 °F /  5.1 °C 29.9in /  1011.3hPa NW 6.2mph /  10.0km/h 11.5mph /  18.5km/h 22% 0in /  0.0mm CLR
13:04 84.4 °F /  29.1 °C 42.4 °F /  5.8 °C 29.9in /  1011.1hPa WSW 6.2mph /  10.0km/h 12.7mph /  20.4km/h 23% 0in /  0.0mm CLR
13:09 84.9 °F /  29.4 °C 41.7 °F /  5.4 °C 29.9in /  1011.1hPa SW 6.4mph /  10.3km/h 12.7mph /  20.4km/h 22% 0in /  0.0mm CLR
13:14 84.9 °F /  29.4 °C 41.7 °F /  5.4 °C 29.9in /  1011.1hPa West 6.4mph /  10.3km/h 9.7mph /  15.6km/h 22% 0in /  0.0mm CLR
13:19 84.9 °F /  29.4 °C 41.7 °F /  5.4 °C 29.9in /  1011.1hPa SSW 6.4mph /  10.3km/h 12.7mph /  20.4km/h 22% 0in /  0.0mm CLR
13:24 85.3 °F /  29.6 °C 42.1 °F /  5.6 °C 29.9in /  1011.1hPa West 6.4mph /  10.3km/h 13mph /  20.9km/h 22% 0in /  0.0mm CLR
13:29 84.9 °F /  29.4 °C 41.7 °F /  5.4 °C 29.9in /  1011.1hPa West 7.6mph /  12.2km/h 12.7mph /  20.4km/h 22% 0in /  0.0mm CLR
13:34 84.9 °F /  29.4 °C 41.7 °F /  5.4 °C 29.9in /  1010.9hPa WSW 7.6mph /  12.2km/h 11.5mph /  18.5km/h 22% 0in /  0.0mm CLR
13:39 85.1 °F /  29.5 °C 42.1 °F /  5.6 °C 29.9in /  1010.9hPa SW 7.6mph /  12.2km/h 8.1mph /  13.0km/h 22% 0in /  0.0mm CLR
13:44 84.9 °F /  29.4 °C 41.7 °F /  5.4 °C 29.9in /  1010.9hPa East 7.6mph /  12.2km/h 2.3mph /  3.7km/h 22% 0in /  0.0mm CLR
13:49 85.6 °F /  29.8 °C 42.4 °F /  5.8 °C 29.9in /  1010.8hPa SW 3.1mph /  5.0km/h 5.8mph /  9.3km/h 22% 0in /  0.0mm CLR
13:54 85.8 °F /  29.9 °C 42.6 °F /  5.9 °C 29.9in /  1010.8hPa West 3.1mph /  5.0km/h 10.2mph /  16.4km/h 22% 0in /  0.0mm CLR
13:59 86.2 °F /  30.1 °C 41.7 °F /  5.4 °C 29.9in /  1010.8hPa SW 6.2mph /  10.0km/h 12.7mph /  20.4km/h 21% 0in /  0.0mm CLR
14:04 85.6 °F /  29.8 °C 42.4 °F /  5.8 °C 29.8in /  1010.7hPa South 6.2mph /  10.0km/h 10.4mph /  16.7km/h 22% 0in /  0.0mm CLR
14:09 85.6 °F /  29.8 °C 41.2 °F /  5.1 °C 29.8in /  1010.7hPa West 5.9mph /  9.5km/h 5.8mph /  9.3km/h 21% 0in /  0.0mm CLR
14:14 85.8 °F /  29.9 °C 42.6 °F /  5.9 °C 29.8in /  1010.7hPa NW 5.9mph /  9.5km/h 8.1mph /  13.0km/h 22% 0in /  0.0mm CLR
14:19 86.2 °F /  30.1 °C 41.7 °F /  5.4 °C 29.8in /  1010.5hPa South 4.3mph /  6.9km/h 6.9mph /  11.1km/h 21% 0in /  0.0mm CLR
14:24 86.4 °F /  30.2 °C 41.7 °F /  5.4 °C 29.8in /  1010.5hPa West 4.3mph /  6.9km/h 3.5mph /  5.6km/h 21% 0in /  0.0mm CLR
14:29 86.5 °F /  30.3 °C 42.1 °F /  5.6 °C 29.8in /  1010.5hPa SW 3.6mph /  5.8km/h 5.4mph /  8.7km/h 21% 0in /  0.0mm CLR
14:34 86.7 °F /  30.4 °C 42.1 °F /  5.6 °C 29.8in /  1010.2hPa West 3.6mph /  5.8km/h 3.6mph /  5.8km/h 21% 0in /  0.0mm CLR
14:39 87.3 °F /  30.7 °C 42.6 °F /  5.9 °C 29.8in /  1010.2hPa SW 3.1mph /  5.0km/h 6.9mph /  11.1km/h 21% 0in /  0.0mm CLR
14:44 87.1 °F /  30.6 °C 42.4 °F /  5.8 °C 29.8in /  1010.2hPa NNE 3.1mph /  5.0km/h 4.6mph /  7.4km/h 21% 0in /  0.0mm CLR
14:49 87.3 °F /  30.7 °C 42.6 °F /  5.9 °C 29.8in /  1010.1hPa NNW 4mph /  6.4km/h 6.9mph /  11.1km/h 21% 0in /  0.0mm CLR
14:54 87.3 °F /  30.7 °C 42.6 °F /  5.9 °C 29.8in /  1010.1hPa NNW 4mph /  6.4km/h 8.1mph /  13.0km/h 21% 0in /  0.0mm CLR
14:59 86.5 °F /  30.3 °C 53.2 °F /  11.8 °C 29.8in /  1010.1hPa ESE 4.7mph /  7.6km/h 18.4mph /  29.6km/h 32% 0in /  0.0mm CLR
15:04 85.6 °F /  29.8 °C 53.2 °F /  11.8 °C 29.8in /  1009.9hPa SE 4.7mph /  7.6km/h 12.7mph /  20.4km/h 33% 0in /  0.0mm CLR
15:09 85.3 °F /  29.6 °C 52.9 °F /  11.6 °C 29.8in /  1009.9hPa SSE 10.7mph /  17.2km/h 15mph /  24.1km/h 33% 0in /  0.0mm CLR
15:14 85.3 °F /  29.6 °C 52.2 °F /  11.2 °C 29.8in /  1009.9hPa SE 10.7mph /  17.2km/h 19.6mph /  31.5km/h 32% 0in /  0.0mm CLR
15:19 85.3 °F /  29.6 °C 52.9 °F /  11.6 °C 29.8in /  1009.6hPa SE 11.4mph /  18.3km/h 18.4mph /  29.6km/h 33% 0in /  0.0mm CLR
15:24 84.9 °F /  29.4 °C 52.5 °F /  11.4 °C 29.8in /  1009.6hPa ESE 11.4mph /  18.3km/h 16.1mph /  25.9km/h 33% 0in /  0.0mm CLR
15:29 84.7 °F /  29.3 °C 54.1 °F /  12.3 °C 29.8in /  1009.6hPa ESE 13.7mph /  22.0km/h 20.7mph /  33.3km/h 35% 0in /  0.0mm CLR
15:34 84.6 °F /  29.2 °C 54.7 °F /  12.6 °C 29.8in /  1009.5hPa ESE 13.7mph /  22.0km/h 17.5mph /  28.2km/h 36% 0in /  0.0mm CLR
15:39 84.6 °F /  29.2 °C 54.7 °F /  12.6 °C 29.8in /  1009.5hPa ESE 13mph /  20.9km/h 21.9mph /  35.2km/h 36% 0in /  0.0mm CLR
15:44 84.4 °F /  29.1 °C 55.9 °F /  13.3 °C 29.8in /  1009.5hPa SE 13mph /  20.9km/h 18.4mph /  29.6km/h 38% 0in /  0.0mm CLR
15:49 84 °F /  28.9 °C 56.5 °F /  13.6 °C 29.8in /  1009.4hPa East 14.5mph /  23.3km/h 24.2mph /  38.9km/h 39% 0in /  0.0mm CLR
15:54 83.7 °F /  28.7 °C 56.1 °F /  13.4 °C 29.8in /  1009.4hPa ESE 14.5mph /  23.3km/h 23mph /  37.0km/h 39% 0in /  0.0mm CLR
15:59 84 °F /  28.9 °C 57 °F /  13.9 °C 29.8in /  1009.4hPa SE 14.5mph /  23.3km/h 18.4mph /  29.6km/h 40% 0in /  0.0mm CLR
16:04 84.2 °F /  29.0 °C 57.4 °F /  14.1 °C 29.8in /  1009.4hPa East 14.5mph /  23.3km/h 20.7mph /  33.3km/h 40% 0in /  0.0mm CLR
16:09 84.2 °F /  29.0 °C 57.4 °F /  14.1 °C 29.8in /  1009.4hPa ESE 13.7mph /  22.0km/h 22.3mph /  35.9km/h 40% 0in /  0.0mm CLR
16:14 83.8 °F /  28.8 °C 56.8 °F /  13.8 °C 29.8in /  1009.4hPa ESE 13.7mph /  22.0km/h 21.9mph /  35.2km/h 40% 0in /  0.0mm CLR
16:19 83.8 °F /  28.8 °C 56.8 °F /  13.8 °C 29.8in /  1009.5hPa East 14.5mph /  23.3km/h 20.7mph /  33.3km/h 40% 0in /  0.0mm CLR
16:24 83.8 °F /  28.8 °C 56.8 °F /  13.8 °C 29.8in /  1009.5hPa SE 14.5mph /  23.3km/h 16.1mph /  25.9km/h 40% 0in /  0.0mm CLR
16:29 84 °F /  28.9 °C 57 °F /  13.9 °C 29.8in /  1009.5hPa ESE 13mph /  20.9km/h 18.4mph /  29.6km/h 40% 0in /  0.0mm CLR
16:34 84.6 °F /  29.2 °C 56.8 °F /  13.8 °C 29.8in /  1009.3hPa ESE 13mph /  20.9km/h 15.2mph /  24.5km/h 39% 0in /  0.0mm CLR
16:39 84.9 °F /  29.4 °C 57.2 °F /  14.0 °C 29.8in /  1009.3hPa ESE 10.7mph /  17.2km/h 17.3mph /  27.8km/h 39% 0in /  0.0mm CLR
16:44 84.6 °F /  29.2 °C 55.4 °F /  13.0 °C 29.8in /  1009.3hPa ESE 10.7mph /  17.2km/h 24.2mph /  38.9km/h 37% 0in /  0.0mm CLR
16:49 84.4 °F /  29.1 °C 55.2 °F /  12.9 °C 29.8in /  1009.2hPa SE 14.5mph /  23.3km/h 20.7mph /  33.3km/h 37% 0in /  0.0mm CLR
16:54 84.6 °F /  29.2 °C 54.7 °F /  12.6 °C 29.8in /  1009.2hPa SE 14.5mph /  23.3km/h 20.7mph /  33.3km/h 36% 0in /  0.0mm CLR
16:59 84.9 °F /  29.4 °C 53.4 °F /  11.9 °C 29.8in /  1009.2hPa East 13mph /  20.9km/h 15.9mph /  25.6km/h 34% 0in /  0.0mm CLR
17:04 84.6 °F /  29.2 °C 54 °F /  12.2 °C 29.8in /  1009.1hPa ESE 13mph /  20.9km/h 21.9mph /  35.2km/h 35% 0in /  0.0mm CLR
17:09 84 °F /  28.9 °C 52.5 °F /  11.4 °C 29.8in /  1009.1hPa ESE 14.5mph /  23.3km/h 17mph /  27.4km/h 34% 0in /  0.0mm CLR
17:14 83.8 °F /  28.8 °C 52.5 °F /  11.4 °C 29.8in /  1009.1hPa ESE 14.5mph /  23.3km/h 25.3mph /  40.7km/h 34% 0in /  0.0mm CLR
17:19 84.4 °F /  29.1 °C 52.2 °F /  11.2 °C 29.8in /  1009.1hPa ESE 14mph /  22.5km/h 23mph /  37.0km/h 33% 0in /  0.0mm CLR
17:24 84.4 °F /  29.1 °C 51.3 °F /  10.7 °C 29.8in /  1009.1hPa SSE 14mph /  22.5km/h 13.8mph /  22.2km/h 32% 0in /  0.0mm CLR
17:29 84.4 °F /  29.1 °C 51.3 °F /  10.7 °C 29.8in /  1009.1hPa ESE 11.8mph /  19.0km/h 20.7mph /  33.3km/h 32% 0in /  0.0mm CLR
17:34 84 °F /  28.9 °C 51.1 °F /  10.6 °C 29.8in /  1009.1hPa ESE 11.8mph /  19.0km/h 18.4mph /  29.6km/h 32% 0in /  0.0mm CLR
17:39 83.8 °F /  28.8 °C 50.7 °F /  10.4 °C 29.8in /  1009.1hPa ESE 13.7mph /  22.0km/h 20.7mph /  33.3km/h 32% 0in /  0.0mm CLR
17:44 83.8 °F /  28.8 °C 50 °F /  10.0 °C 29.8in /  1009.1hPa South 13.7mph /  22.0km/h 13.8mph /  22.2km/h 31% 0in /  0.0mm CLR
17:49 84 °F /  28.9 °C 50.2 °F /  10.1 °C 29.8in /  1009.1hPa ESE 11.2mph /  18.0km/h 12.7mph /  20.4km/h 31% 0in /  0.0mm CLR
17:54 84.2 °F /  29.0 °C 50.4 °F /  10.2 °C 29.8in /  1009.1hPa ESE 11.2mph /  18.0km/h 18.4mph /  29.6km/h 31% 0in /  0.0mm CLR
17:59 84.4 °F /  29.1 °C 50.4 °F /  10.2 °C 29.8in /  1009.1hPa East 9.7mph /  15.6km/h 13.8mph /  22.2km/h 31% 0in /  0.0mm CLR
18:04 84.2 °F /  29.0 °C 49.5 °F /  9.7 °C 29.8in /  1009.2hPa SE 9.7mph /  15.6km/h 16.1mph /  25.9km/h 30% 0in /  0.0mm CLR
18:09 84.2 °F /  29.0 °C 49.5 °F /  9.7 °C 29.8in /  1009.2hPa SSE 9.7mph /  15.6km/h 15mph /  24.1km/h 30% 0in /  0.0mm CLR
18:14 84 °F /  28.9 °C 49.3 °F /  9.6 °C 29.8in /  1009.2hPa SSE 9.7mph /  15.6km/h 8.7mph /  14.0km/h 30% 0in /  0.0mm CLR
18:19 84.2 °F /  29.0 °C 49.5 °F /  9.7 °C 29.8in /  1009.1hPa SSE 10mph /  16.1km/h 13.8mph /  22.2km/h 30% 0in /  0.0mm CLR
18:24 84 °F /  28.9 °C 49.3 °F /  9.6 °C 29.8in /  1009.1hPa SE 10mph /  16.1km/h 16.1mph /  25.9km/h 30% 0in /  0.0mm CLR
18:29 84 °F /  28.9 °C 49.3 °F /  9.6 °C 29.8in /  1009.1hPa SE 9.7mph /  15.6km/h 12.7mph /  20.4km/h 30% 0in /  0.0mm CLR
18:34 83.8 °F /  28.8 °C 49.1 °F /  9.5 °C 29.8in /  1008.9hPa SE 9.7mph /  15.6km/h 10.4mph /  16.7km/h 30% 0in /  0.0mm CLR
18:39 83.8 °F /  28.8 °C 49.1 °F /  9.5 °C 29.8in /  1008.9hPa SSE 8.1mph /  13.0km/h 9.2mph /  14.8km/h 30% 0in /  0.0mm CLR
18:44 83.8 °F /  28.8 °C 49.1 °F /  9.5 °C 29.8in /  1008.9hPa SE 8.1mph /  13.0km/h 12.7mph /  20.4km/h 30% 0in /  0.0mm CLR
18:49 83.5 °F /  28.6 °C 48.7 °F /  9.3 °C 29.8in /  1009.0hPa SSE 6.9mph /  11.1km/h 8.1mph /  13.0km/h 30% 0in /  0.0mm CLR
18:54 83.7 °F /  28.7 °C 48.9 °F /  9.4 °C 29.8in /  1009.0hPa East 6.9mph /  11.1km/h 11.5mph /  18.5km/h 30% 0in /  0.0mm CLR
18:59 83.1 °F /  28.4 °C 49.3 °F /  9.6 °C 29.8in /  1009.0hPa ESE 6.2mph /  10.0km/h 6.9mph /  11.1km/h 31% 0in /  0.0mm CLR
19:04 83.1 °F /  28.4 °C 48.6 °F /  9.2 °C 29.8in /  1009.0hPa SE 6.2mph /  10.0km/h 10.4mph /  16.7km/h 30% 0in /  0.0mm CLR
19:09 82.9 °F /  28.3 °C 48.4 °F /  9.1 °C 29.8in /  1009.0hPa SE 6.2mph /  10.0km/h 6.9mph /  11.1km/h 30% 0in /  0.0mm CLR
19:14 82.9 °F /  28.3 °C 47.5 °F /  8.6 °C 29.8in /  1009.0hPa ESE 6.2mph /  10.0km/h 7.6mph /  12.2km/h 29% 0in /  0.0mm CLR
19:19 82.8 °F /  28.2 °C 48.2 °F /  9.0 °C 29.8in /  1009.0hPa SE 6.2mph /  10.0km/h 12.7mph /  20.4km/h 30% 0in /  0.0mm CLR
19:24 82.6 °F /  28.1 °C 47.1 °F /  8.4 °C 29.8in /  1009.0hPa ESE 6.2mph /  10.0km/h 11.5mph /  18.5km/h 29% 0in /  0.0mm CLR
19:29 82.2 °F /  27.9 °C 46.8 °F /  8.2 °C 29.8in /  1009.0hPa ESE 6.9mph /  11.1km/h 13.8mph /  22.2km/h 29% 0in /  0.0mm CLR
19:34 82 °F /  27.8 °C 46.6 °F /  8.1 °C 29.8in /  1009.2hPa East 6.9mph /  11.1km/h 9.2mph /  14.8km/h 29% 0in /  0.0mm CLR
19:39 81.9 °F /  27.7 °C 46.6 °F /  8.1 °C 29.8in /  1009.2hPa SSE 8.1mph /  13.0km/h 9.2mph /  14.8km/h 29% 0in /  0.0mm CLR
19:44 81.9 °F /  27.7 °C 46.6 °F /  8.1 °C 29.8in /  1009.2hPa East 8.1mph /  13.0km/h 9.2mph /  14.8km/h 29% 0in /  0.0mm CLR
19:49 81.9 °F /  27.7 °C 46.6 °F /  8.1 °C 29.8in /  1009.2hPa ESE 5.9mph /  9.5km/h 7.4mph /  11.9km/h 29% 0in /  0.0mm CLR
19:54 81.9 °F /  27.7 °C 55.9 °F /  13.3 °C 29.8in /  1009.2hPa NE 5.9mph /  9.5km/h 8.1mph /  13.0km/h 41% 0in /  0.0mm CLR
19:59 80.8 °F /  27.1 °C 49.8 °F /  9.9 °C 29.8in /  1009.2hPa North 4.3mph /  6.9km/h 8.1mph /  13.0km/h 34% 0in /  0.0mm CLR
20:04 80.8 °F /  27.1 °C 46.4 °F /  8.0 °C 29.8in /  1009.2hPa ENE 4.3mph /  6.9km/h 8.1mph /  13.0km/h 30% 0in /  0.0mm CLR
20:09 80.8 °F /  27.1 °C 58.6 °F /  14.8 °C 29.8in /  1009.2hPa NE 5.2mph /  8.4km/h 12.7mph /  20.4km/h 47% 0in /  0.0mm CLR
20:14 79.3 °F /  26.3 °C 57.9 °F /  14.4 °C 29.8in /  1009.2hPa NE 5.2mph /  8.4km/h 17.3mph /  27.8km/h 48% 0in /  0.0mm CLR
20:19 78.3 °F /  25.7 °C 60.3 °F /  15.7 °C 29.8in /  1009.3hPa ENE 9.2mph /  14.8km/h 13.8mph /  22.2km/h 54% 0in /  0.0mm CLR
20:24 77.5 °F /  25.3 °C 60.1 °F /  15.6 °C 29.8in /  1009.3hPa East 9.2mph /  14.8km/h 15mph /  24.1km/h 55% 0in /  0.0mm CLR
20:29 76.8 °F /  24.9 °C 59.4 °F /  15.2 °C 29.8in /  1009.3hPa ENE 8.7mph /  14.0km/h 15mph /  24.1km/h 55% 0in /  0.0mm CLR
20:34 76.5 °F /  24.7 °C 59.5 °F /  15.3 °C 29.8in /  1009.4hPa North 8.7mph /  14.0km/h 10.4mph /  16.7km/h 56% 0in /  0.0mm CLR
20:39 76.3 °F /  24.6 °C 60.4 °F /  15.8 °C 29.8in /  1009.4hPa NNE 7.6mph /  12.2km/h 12.7mph /  20.4km/h 58% 0in /  0.0mm CLR
20:45 75.7 °F /  24.3 °C 60.4 °F /  15.8 °C 29.8in /  1009.4hPa NE 8mph /  12.9km/h 14mph /  22.5km/h 59% 0in /  0.0mm CLR
20:50 75 °F /  23.9 °C 60.6 °F /  15.9 °C 29.8in /  1009.4hPa NNE 9.2mph /  14.8km/h 15mph /  24.1km/h 61% 0in /  0.0mm CLR
20:55 74.8 °F /  23.8 °C 60.1 °F /  15.6 °C 29.8in /  1009.4hPa NE 9mph /  14.5km/h 14mph /  22.5km/h 60% 0in /  0.0mm CLR
21:00 75 °F /  23.9 °C 61.2 °F /  16.2 °C 29.8in /  1009.4hPa NE 8mph /  12.9km/h 14mph /  22.5km/h 62% 0in /  0.0mm CLR
21:05 74.7 °F /  23.7 °C 61.7 °F /  16.5 °C 29.8in /  1009.6hPa NE 8mph /  12.9km/h 16mph /  25.7km/h 64% 0in /  0.0mm CLR
21:10 74.1 °F /  23.4 °C 62.1 °F /  16.7 °C 29.8in /  1009.6hPa NE 9.7mph /  15.6km/h 13.8mph /  22.2km/h 66% 0in /  0.0mm CLR
21:15 73.8 °F /  23.2 °C 62.1 °F /  16.7 °C 29.8in /  1009.6hPa NNE 9mph /  14.5km/h 14mph /  22.5km/h 67% 0in /  0.0mm CLR
21:20 73.4 °F /  23.0 °C 62.2 °F /  16.8 °C 29.8in /  1009.7hPa NE 8.7mph /  14.0km/h 12.3mph /  19.8km/h 68% 0in /  0.0mm CLR
21:25 73 °F /  22.8 °C 62.2 °F /  16.8 °C 29.8in /  1009.7hPa NNE 9mph /  14.5km/h 15mph /  24.1km/h 69% 0in /  0.0mm CLR
21:30 72.9 °F /  22.7 °C 62.4 °F /  16.9 °C 29.8in /  1009.7hPa NNE 9mph /  14.5km/h 17mph /  27.4km/h 70% 0in /  0.0mm CLR
21:35 72.7 °F /  22.6 °C 62.2 °F /  16.8 °C 29.8in /  1009.9hPa NNE 9mph /  14.5km/h 14mph /  22.5km/h 70% 0in /  0.0mm CLR
21:40 72.3 °F /  22.4 °C 62.8 °F /  17.1 °C 29.8in /  1009.9hPa NNE 10mph /  16.1km/h 13.8mph /  22.2km/h 72% 0in /  0.0mm CLR
21:45 72 °F /  22.2 °C 62.4 °F /  16.9 °C 29.8in /  1009.9hPa NNE 10mph /  16.1km/h 16mph /  25.7km/h 72% 0in /  0.0mm CLR
21:50 72 °F /  22.2 °C 62.8 °F /  17.1 °C 29.8in /  1010.0hPa NE 9.7mph /  15.6km/h 15mph /  24.1km/h 73% 0in /  0.0mm CLR
21:55 71.8 °F /  22.1 °C 62.8 °F /  17.1 °C 29.8in /  1010.0hPa NE 9mph /  14.5km/h 17mph /  27.4km/h 73% 0in /  0.0mm CLR
22:00 71.6 °F /  22.0 °C 63 °F /  17.2 °C 29.8in /  1010.0hPa NE 9mph /  14.5km/h 17mph /  27.4km/h 74% 0in /  0.0mm CLR
22:05 71.4 °F /  21.9 °C 62.8 °F /  17.1 °C 29.8in /  1010.2hPa NE 9mph /  14.5km/h 19mph /  30.6km/h 74% 0in /  0.0mm CLR
22:10 71.2 °F /  21.8 °C 63 °F /  17.2 °C 29.8in /  1010.2hPa East 9.7mph /  15.6km/h 18.4mph /  29.6km/h 75% 0in /  0.0mm CLR
22:15 71.1 °F /  21.7 °C 62.8 °F /  17.1 °C 29.8in /  1010.2hPa NE 9.7mph /  15.6km/h 13mph /  20.9km/h 75% 0in /  0.0mm CLR
22:20 70.9 °F /  21.6 °C 62.6 °F /  17.0 °C 29.8in /  1010.3hPa NNE 9.2mph /  14.8km/h 15mph /  24.1km/h 75% 0in /  0.0mm CLR
22:25 70.9 °F /  21.6 °C 63 °F /  17.2 °C 29.8in /  1010.3hPa NE 9mph /  14.5km/h 16mph /  25.7km/h 76% 0in /  0.0mm CLR
22:30 70.5 °F /  21.4 °C 63 °F /  17.2 °C 29.8in /  1010.3hPa NE 10.7mph /  17.2km/h 17.3mph /  27.8km/h 77% 0in /  0.0mm CLR
22:35 70.5 °F /  21.4 °C 63 °F /  17.2 °C 29.8in /  1010.3hPa NE 10mph /  16.1km/h 16mph /  25.7km/h 77% 0in /  0.0mm CLR
22:40 70.2 °F /  21.2 °C 62.6 °F /  17.0 °C 29.8in /  1010.3hPa NE 10mph /  16.1km/h 13.8mph /  22.2km/h 77% 0in /  0.0mm CLR
22:45 70 °F /  21.1 °C 62.8 °F /  17.1 °C 29.8in /  1010.3hPa NNE 10mph /  16.1km/h 17mph /  27.4km/h 78% 0in /  0.0mm CLR
22:50 69.8 °F /  21.0 °C 63 °F /  17.2 °C 29.8in /  1010.6hPa NE 10mph /  16.1km/h 15.6mph /  25.1km/h 79% 0in /  0.0mm CLR
22:55 69.6 °F /  20.9 °C 62.8 °F /  17.1 °C 29.8in /  1010.6hPa NNE 10mph /  16.1km/h 16mph /  25.7km/h 79% 0in /  0.0mm CLR
23:00 69.4 °F /  20.8 °C 63 °F /  17.2 °C 29.8in /  1010.6hPa NE 10mph /  16.1km/h 15mph /  24.1km/h 80% 0in /  0.0mm CLR
23:05 69.3 °F /  20.7 °C 62.8 °F /  17.1 °C 29.8in /  1010.5hPa NE 10mph /  16.1km/h 15mph /  24.1km/h 80% 0in /  0.0mm CLR
23:10 69.3 °F /  20.7 °C 63.1 °F /  17.3 °C 29.8in /  1010.5hPa NNE 10.2mph /  16.4km/h 17.3mph /  27.8km/h 81% 0in /  0.0mm CLR
23:15 69.1 °F /  20.6 °C 63 °F /  17.2 °C 29.8in /  1010.5hPa NE 10mph /  16.1km/h 16mph /  25.7km/h 81% 0in /  0.0mm CLR
23:20 69.1 °F /  20.6 °C 63.3 °F /  17.4 °C 29.8in /  1010.6hPa NE 9mph /  14.5km/h 15mph /  24.1km/h 82% 0in /  0.0mm CLR
23:25 68.9 °F /  20.5 °C 63.1 °F /  17.3 °C 29.8in /  1010.6hPa NE 9mph /  14.5km/h 14mph /  22.5km/h 82% 0in /  0.0mm CLR
23:30 68.7 °F /  20.4 °C 63 °F /  17.2 °C 29.8in /  1010.6hPa NNE 8.5mph /  13.7km/h 11.5mph /  18.5km/h 82% 0in /  0.0mm CLR
23:35 68.5 °F /  20.3 °C 63.1 °F /  17.3 °C 29.8in /  1010.6hPa NE 8.5mph /  13.7km/h 11.5mph /  18.5km/h 83% 0in /  0.0mm CLR
23:40 68.5 °F /  20.3 °C 63.1 °F /  17.3 °C 29.8in /  1010.6hPa NE 9mph /  14.5km/h 15mph /  24.1km/h 83% 0in /  0.0mm CLR
23:45 68.5 °F /  20.3 °C 63.5 °F /  17.5 °C 29.8in /  1010.6hPa NE 9mph /  14.5km/h 14mph /  22.5km/h 84% 0in /  0.0mm CLR
23:50 68.5 °F /  20.3 °C 63.5 °F /  17.5 °C 29.8in /  1010.7hPa ENE 8.7mph /  14.0km/h 11.5mph /  18.5km/h 84% 0in /  0.0mm CLR
23:55 68.4 °F /  20.2 °C 63.3 °F /  17.4 °C 29.8in /  1010.7hPa NE 9mph /  14.5km/h 13mph /  20.9km/h 84% 0in /  0.0mm CLR
Murcia-Puente Tocinos, España
Compliments of Weather Underground - 2.75 mb

La estación de MeteoMurcia.com, publica sus datos en los siguientes proyectos:

Weather Underground PWS IMURCIAP2 Meteoclimatic www.awekas.at

W3Counter
Web Analytics